sensor_id;sensor_type;location;lat;lon;timestamp;temperature;humidity
24103;DHT22;12278;53.058;9.028;2022-08-19T00:00:40;18.30;99.90
24103;DHT22;12278;53.058;9.028;2022-08-19T00:04:41;18.20;99.90
24103;DHT22;12278;53.058;9.028;2022-08-19T00:08:42;18.10;99.90
24103;DHT22;12278;53.058;9.028;2022-08-19T00:12:44;18.10;99.90
24103;DHT22;12278;53.058;9.028;2022-08-19T00:16:46;18.20;99.90
24103;DHT22;12278;53.058;9.028;2022-08-19T00:20:48;18.20;99.90
24103;DHT22;12278;53.058;9.028;2022-08-19T00:24:49;18.20;99.90
24103;DHT22;12278;53.058;9.028;2022-08-19T00:28:50;18.20;99.90
24103;DHT22;12278;53.058;9.028;2022-08-19T00:32:51;18.30;99.90
24103;DHT22;12278;53.058;9.028;2022-08-19T00:36:52;18.30;99.90
24103;DHT22;12278;53.058;9.028;2022-08-19T00:40:53;18.30;99.90
24103;DHT22;12278;53.058;9.028;2022-08-19T00:44:54;18.20;99.90
24103;DHT22;12278;53.058;9.028;2022-08-19T00:48:56;18.20;99.90
24103;DHT22;12278;53.058;9.028;2022-08-19T00:52:58;18.30;99.90
24103;DHT22;12278;53.058;9.028;2022-08-19T00:57:02;18.30;99.90
24103;DHT22;12278;53.058;9.028;2022-08-19T01:01:07;18.30;99.90
24103;DHT22;12278;53.058;9.028;2022-08-19T01:05:13;18.30;99.90
24103;DHT22;12278;53.058;9.028;2022-08-19T01:09:16;18.40;99.90
24103;DHT22;12278;53.058;9.028;2022-08-19T01:13:23;18.40;99.90
24103;DHT22;12278;53.058;9.028;2022-08-19T01:17:27;18.30;99.90
24103;DHT22;12278;53.058;9.028;2022-08-19T01:21:32;18.40;99.90
24103;DHT22;12278;53.058;9.028;2022-08-19T01:25:42;18.50;99.90
24103;DHT22;12278;53.058;9.028;2022-08-19T01:29:45;18.60;99.90
24103;DHT22;12278;53.058;9.028;2022-08-19T01:33:47;18.50;99.90
24103;DHT22;12278;53.058;9.028;2022-08-19T01:37:59;18.50;99.90
24103;DHT22;12278;53.058;9.028;2022-08-19T01:42:07;18.50;99.90
24103;DHT22;12278;53.058;9.028;2022-08-19T01:46:11;18.50;99.90
24103;DHT22;12278;53.058;9.028;2022-08-19T01:50:13;18.50;99.90
24103;DHT22;12278;53.058;9.028;2022-08-19T01:54:16;18.40;99.90
24103;DHT22;12278;53.058;9.028;2022-08-19T01:58:22;18.40;99.90
24103;DHT22;12278;53.058;9.028;2022-08-19T02:02:26;18.40;99.90
24103;DHT22;12278;53.058;9.028;2022-08-19T02:06:28;18.50;99.90
24103;DHT22;12278;53.058;9.028;2022-08-19T02:10:29;18.50;99.90
24103;DHT22;12278;53.058;9.028;2022-08-19T02:14:33;18.60;99.90
24103;DHT22;12278;53.058;9.028;2022-08-19T02:18:34;18.70;99.90
24103;DHT22;12278;53.058;9.028;2022-08-19T02:22:35;18.70;99.90
24103;DHT22;12278;53.058;9.028;2022-08-19T02:26:36;18.70;99.90
24103;DHT22;12278;53.058;9.028;2022-08-19T02:30:38;18.60;99.90
24103;DHT22;12278;53.058;9.028;2022-08-19T02:34:41;18.60;99.90
24103;DHT22;12278;53.058;9.028;2022-08-19T02:38:44;18.70;99.90
24103;DHT22;12278;53.058;9.028;2022-08-19T02:42:45;18.60;99.90
24103;DHT22;12278;53.058;9.028;2022-08-19T02:46:47;18.60;99.90
24103;DHT22;12278;53.058;9.028;2022-08-19T02:50:51;18.60;99.90
24103;DHT22;12278;53.058;9.028;2022-08-19T02:54:55;18.60;99.90
24103;DHT22;12278;53.058;9.028;2022-08-19T02:58:58;18.70;99.90
24103;DHT22;12278;53.058;9.028;2022-08-19T03:02:59;18.60;99.90
24103;DHT22;12278;53.058;9.028;2022-08-19T03:07:00;18.60;99.90
24103;DHT22;12278;53.058;9.028;2022-08-19T03:11:02;18.60;99.90
24103;DHT22;12278;53.058;9.028;2022-08-19T03:15:05;18.60;99.90
24103;DHT22;12278;53.058;9.028;2022-08-19T03:19:07;18.50;99.90
24103;DHT22;12278;53.058;9.028;2022-08-19T03:23:08;18.50;99.90
24103;DHT22;12278;53.058;9.028;2022-08-19T03:27:09;18.50;99.90
24103;DHT22;12278;53.058;9.028;2022-08-19T03:31:13;18.40;99.90
24103;DHT22;12278;53.058;9.028;2022-08-19T03:35:15;18.30;99.90
24103;DHT22;12278;53.058;9.028;2022-08-19T03:39:17;18.30;99.90
24103;DHT22;12278;53.058;9.028;2022-08-19T03:43:18;18.30;99.90
24103;DHT22;12278;53.058;9.028;2022-08-19T03:47:19;18.40;99.90
24103;DHT22;12278;53.058;9.028;2022-08-19T03:55:33;18.30;99.90
24103;DHT22;12278;53.058;9.028;2022-08-19T03:59:35;18.40;99.90
24103;DHT22;12278;53.058;9.028;2022-08-19T04:03:38;18.30;99.90
24103;DHT22;12278;53.058;9.028;2022-08-19T04:07:40;18.30;99.90
24103;DHT22;12278;53.058;9.028;2022-08-19T04:11:47;18.30;99.90
24103;DHT22;12278;53.058;9.028;2022-08-19T04:15:54;18.40;99.90
24103;DHT22;12278;53.058;9.028;2022-08-19T04:19:54;18.30;99.90
24103;DHT22;12278;53.058;9.028;2022-08-19T04:23:56;18.30;99.90
24103;DHT22;12278;53.058;9.028;2022-08-19T04:27:58;18.30;99.90
24103;DHT22;12278;53.058;9.028;2022-08-19T04:31:59;18.30;99.90
24103;DHT22;12278;53.058;9.028;2022-08-19T04:36:00;18.40;99.90
24103;DHT22;12278;53.058;9.028;2022-08-19T04:40:02;18.40;99.90
24103;DHT22;12278;53.058;9.028;2022-08-19T04:44:43;18.40;99.90
24103;DHT22;12278;53.058;9.028;2022-08-19T04:48:43;18.40;99.90
24103;DHT22;12278;53.058;9.028;2022-08-19T04:52:45;18.30;99.90
24103;DHT22;12278;53.058;9.028;2022-08-19T04:56:46;18.30;99.90
24103;DHT22;12278;53.058;9.028;2022-08-19T05:00:47;18.20;99.90
24103;DHT22;12278;53.058;9.028;2022-08-19T05:04:47;18.20;99.90
24103;DHT22;12278;53.058;9.028;2022-08-19T05:08:49;18.20;99.90
24103;DHT22;12278;53.058;9.028;2022-08-19T05:12:50;18.30;99.90
24103;DHT22;12278;53.058;9.028;2022-08-19T05:16:51;18.40;99.90
24103;DHT22;12278;53.058;9.028;2022-08-19T05:20:51;18.40;99.90
24103;DHT22;12278;53.058;9.028;2022-08-19T05:25:14;18.40;99.90
24103;DHT22;12278;53.058;9.028;2022-08-19T05:29:21;18.30;99.90
24103;DHT22;12278;53.058;9.028;2022-08-19T05:33:23;18.30;99.90
24103;DHT22;12278;53.058;9.028;2022-08-19T05:37:24;18.50;99.90
24103;DHT22;12278;53.058;9.028;2022-08-19T05:41:28;18.50;99.90
24103;DHT22;12278;53.058;9.028;2022-08-19T05:45:29;18.70;99.90
24103;DHT22;12278;53.058;9.028;2022-08-19T05:49:31;18.70;99.90
24103;DHT22;12278;53.058;9.028;2022-08-19T05:53:35;18.80;99.90
24103;DHT22;12278;53.058;9.028;2022-08-19T05:57:37;18.70;99.90
24103;DHT22;12278;53.058;9.028;2022-08-19T06:01:41;18.70;99.90
24103;DHT22;12278;53.058;9.028;2022-08-19T06:05:43;18.70;99.90
24103;DHT22;12278;53.058;9.028;2022-08-19T06:09:44;18.90;99.90
24103;DHT22;12278;53.058;9.028;2022-08-19T06:13:46;19.00;99.90
24103;DHT22;12278;53.058;9.028;2022-08-19T06:17:51;18.90;99.90
24103;DHT22;12278;53.058;9.028;2022-08-19T06:21:52;18.80;99.90
24103;DHT22;12278;53.058;9.028;2022-08-19T06:25:53;18.80;99.90
24103;DHT22;12278;53.058;9.028;2022-08-19T06:29:55;18.70;99.90
24103;DHT22;12278;53.058;9.028;2022-08-19T06:33:57;18.60;99.90
24103;DHT22;12278;53.058;9.028;2022-08-19T06:37:58;18.70;99.90
24103;DHT22;12278;53.058;9.028;2022-08-19T06:42:04;18.80;99.90
24103;DHT22;12278;53.058;9.028;2022-08-19T06:46:13;19.00;99.90
24103;DHT22;12278;53.058;9.028;2022-08-19T06:50:18;19.00;99.90
24103;DHT22;12278;53.058;9.028;2022-08-19T06:54:21;19.00;99.90
24103;DHT22;12278;53.058;9.028;2022-08-19T06:58:23;19.60;99.90
24103;DHT22;12278;53.058;9.028;2022-08-19T07:02:24;19.90;99.90
24103;DHT22;12278;53.058;9.028;2022-08-19T07:06:29;20.10;99.90
24103;DHT22;12278;53.058;9.028;2022-08-19T07:10:31;20.20;99.90
24103;DHT22;12278;53.058;9.028;2022-08-19T07:14:33;20.30;99.90
24103;DHT22;12278;53.058;9.028;2022-08-19T07:18:39;20.60;99.90
24103;DHT22;12278;53.058;9.028;2022-08-19T07:22:42;20.70;99.90
24103;DHT22;12278;53.058;9.028;2022-08-19T07:26:43;20.70;99.90
24103;DHT22;12278;53.058;9.028;2022-08-19T07:30:44;20.90;99.90
24103;DHT22;12278;53.058;9.028;2022-08-19T07:34:45;21.40;99.90
24103;DHT22;12278;53.058;9.028;2022-08-19T07:38:50;21.80;99.90
24103;DHT22;12278;53.058;9.028;2022-08-19T07:42:51;22.30;99.90
24103;DHT22;12278;53.058;9.028;2022-08-19T07:46:55;22.00;99.90
24103;DHT22;12278;53.058;9.028;2022-08-19T07:51:00;21.90;99.90
24103;DHT22;12278;53.058;9.028;2022-08-19T07:55:04;21.60;99.90
24103;DHT22;12278;53.058;9.028;2022-08-19T07:59:07;21.20;99.90
24103;DHT22;12278;53.058;9.028;2022-08-19T08:03:10;20.60;99.90
24103;DHT22;12278;53.058;9.028;2022-08-19T08:07:13;21.20;99.90
24103;DHT22;12278;53.058;9.028;2022-08-19T08:11:33;22.40;99.90
24103;DHT22;12278;53.058;9.028;2022-08-19T08:15:34;22.80;99.90
24103;DHT22;12278;53.058;9.028;2022-08-19T08:19:36;23.70;99.90
24103;DHT22;12278;53.058;9.028;2022-08-19T08:23:38;23.90;99.90
24103;DHT22;12278;53.058;9.028;2022-08-19T08:27:40;24.10;99.90
24103;DHT22;12278;53.058;9.028;2022-08-19T08:31:44;24.00;99.90
24103;DHT22;12278;53.058;9.028;2022-08-19T08:35:45;24.00;99.90
24103;DHT22;12278;53.058;9.028;2022-08-19T08:39:46;23.70;99.90
24103;DHT22;12278;53.058;9.028;2022-08-19T08:43:49;23.40;99.90
24103;DHT22;12278;53.058;9.028;2022-08-19T08:47:53;22.60;99.90
24103;DHT22;12278;53.058;9.028;2022-08-19T08:52:25;22.40;99.90
24103;DHT22;12278;53.058;9.028;2022-08-19T08:56:30;22.00;99.90
24103;DHT22;12278;53.058;9.028;2022-08-19T09:00:38;22.20;99.90
24103;DHT22;12278;53.058;9.028;2022-08-19T09:04:43;22.30;99.90
24103;DHT22;12278;53.058;9.028;2022-08-19T09:08:59;22.30;99.90
24103;DHT22;12278;53.058;9.028;2022-08-19T09:17:30;22.60;99.90
24103;DHT22;12278;53.058;9.028;2022-08-19T09:21:33;23.40;99.90
24103;DHT22;12278;53.058;9.028;2022-08-19T09:25:35;23.50;99.90
24103;DHT22;12278;53.058;9.028;2022-08-19T09:29:35;23.10;99.90
24103;DHT22;12278;53.058;9.028;2022-08-19T09:33:37;22.90;99.90
24103;DHT22;12278;53.058;9.028;2022-08-19T09:37:38;22.80;99.90
24103;DHT22;12278;53.058;9.028;2022-08-19T09:41:39;22.90;99.90
24103;DHT22;12278;53.058;9.028;2022-08-19T09:45:40;23.00;99.90
24103;DHT22;12278;53.058;9.028;2022-08-19T09:49:41;23.10;99.90
24103;DHT22;12278;53.058;9.028;2022-08-19T09:53:46;23.30;99.90
24103;DHT22;12278;53.058;9.028;2022-08-19T09:57:50;23.90;99.90
24103;DHT22;12278;53.058;9.028;2022-08-19T10:01:54;24.10;99.90
24103;DHT22;12278;53.058;9.028;2022-08-19T10:05:57;24.30;99.90
24103;DHT22;12278;53.058;9.028;2022-08-19T10:09:59;24.10;99.90
24103;DHT22;12278;53.058;9.028;2022-08-19T10:14:01;24.20;99.90
24103;DHT22;12278;53.058;9.028;2022-08-19T10:18:03;24.30;99.90
24103;DHT22;12278;53.058;9.028;2022-08-19T10:22:05;23.90;99.90
24103;DHT22;12278;53.058;9.028;2022-08-19T10:26:07;24.30;99.90
24103;DHT22;12278;53.058;9.028;2022-08-19T10:30:09;24.60;99.90
24103;DHT22;12278;53.058;9.028;2022-08-19T10:34:10;25.10;99.90
24103;DHT22;12278;53.058;9.028;2022-08-19T10:38:11;25.30;99.90
24103;DHT22;12278;53.058;9.028;2022-08-19T10:42:12;25.80;99.90
24103;DHT22;12278;53.058;9.028;2022-08-19T10:46:14;25.80;99.90
24103;DHT22;12278;53.058;9.028;2022-08-19T10:50:16;26.00;99.90
24103;DHT22;12278;53.058;9.028;2022-08-19T10:54:35;25.40;99.90
24103;DHT22;12278;53.058;9.028;2022-08-19T10:58:55;25.90;99.90
24103;DHT22;12278;53.058;9.028;2022-08-19T11:02:57;26.50;99.90
24103;DHT22;12278;53.058;9.028;2022-08-19T11:06:59;26.60;99.90
24103;DHT22;12278;53.058;9.028;2022-08-19T11:11:01;26.90;99.90
24103;DHT22;12278;53.058;9.028;2022-08-19T11:15:03;26.70;99.90
24103;DHT22;12278;53.058;9.028;2022-08-19T11:19:05;26.90;99.90
24103;DHT22;12278;53.058;9.028;2022-08-19T11:23:10;26.70;99.90
24103;DHT22;12278;53.058;9.028;2022-08-19T11:27:12;26.50;99.90
24103;DHT22;12278;53.058;9.028;2022-08-19T11:31:20;26.60;99.90
24103;DHT22;12278;53.058;9.028;2022-08-19T11:35:23;26.40;98.90
24103;DHT22;12278;53.058;9.028;2022-08-19T11:39:26;27.10;99.90
24103;DHT22;12278;53.058;9.028;2022-08-19T11:43:28;27.20;98.90
24103;DHT22;12278;53.058;9.028;2022-08-19T11:47:30;27.10;98.60
24103;DHT22;12278;53.058;9.028;2022-08-19T11:51:32;27.50;97.30
24103;DHT22;12278;53.058;9.028;2022-08-19T11:55:38;27.80;96.80
24103;DHT22;12278;53.058;9.028;2022-08-19T11:59:40;28.30;97.40
24103;DHT22;12278;53.058;9.028;2022-08-19T12:03:42;28.00;95.00
24103;DHT22;12278;53.058;9.028;2022-08-19T12:07:44;28.20;96.90
24103;DHT22;12278;53.058;9.028;2022-08-19T12:11:46;28.30;94.50
24103;DHT22;12278;53.058;9.028;2022-08-19T12:15:47;28.30;95.90
24103;DHT22;12278;53.058;9.028;2022-08-19T12:19:48;28.10;95.20
24103;DHT22;12278;53.058;9.028;2022-08-19T12:23:50;28.60;95.20
24103;DHT22;12278;53.058;9.028;2022-08-19T12:27:51;29.20;95.30
24103;DHT22;12278;53.058;9.028;2022-08-19T12:31:52;28.90;93.70
24103;DHT22;12278;53.058;9.028;2022-08-19T12:35:53;29.30;93.90
24103;DHT22;12278;53.058;9.028;2022-08-19T12:39:54;29.20;94.80
24103;DHT22;12278;53.058;9.028;2022-08-19T12:43:55;29.20;94.50
24103;DHT22;12278;53.058;9.028;2022-08-19T12:47:56;29.20;92.90
24103;DHT22;12278;53.058;9.028;2022-08-19T12:51:57;29.40;93.40
24103;DHT22;12278;53.058;9.028;2022-08-19T12:56:00;29.30;91.90
24103;DHT22;12278;53.058;9.028;2022-08-19T13:00:06;29.20;93.50
24103;DHT22;12278;53.058;9.028;2022-08-19T13:04:15;29.60;92.60
24103;DHT22;12278;53.058;9.028;2022-08-19T13:08:16;29.90;93.20
24103;DHT22;12278;53.058;9.028;2022-08-19T13:12:17;30.10;92.70
24103;DHT22;12278;53.058;9.028;2022-08-19T13:16:20;30.60;92.40
24103;DHT22;12278;53.058;9.028;2022-08-19T13:20:22;30.90;89.90
24103;DHT22;12278;53.058;9.028;2022-08-19T13:24:23;31.50;87.50
24103;DHT22;12278;53.058;9.028;2022-08-19T13:28:24;31.30;87.70
24103;DHT22;12278;53.058;9.028;2022-08-19T13:32:25;31.00;88.70
24103;DHT22;12278;53.058;9.028;2022-08-19T13:36:44;31.60;85.70
24103;DHT22;12278;53.058;9.028;2022-08-19T13:40:45;32.50;82.90
24103;DHT22;12278;53.058;9.028;2022-08-19T13:44:52;33.10;79.00
24103;DHT22;12278;53.058;9.028;2022-08-19T13:48:53;33.80;79.90
24103;DHT22;12278;53.058;9.028;2022-08-19T13:52:55;33.80;78.50
24103;DHT22;12278;53.058;9.028;2022-08-19T13:56:56;34.30;75.70
24103;DHT22;12278;53.058;9.028;2022-08-19T14:00:57;34.50;75.80
24103;DHT22;12278;53.058;9.028;2022-08-19T14:04:59;35.60;74.80
24103;DHT22;12278;53.058;9.028;2022-08-19T14:09:03;35.60;70.40
24103;DHT22;12278;53.058;9.028;2022-08-19T14:13:04;35.90;69.80
24103;DHT22;12278;53.058;9.028;2022-08-19T14:17:06;35.90;66.60
24103;DHT22;12278;53.058;9.028;2022-08-19T14:21:08;36.40;62.90
24103;DHT22;12278;53.058;9.028;2022-08-19T14:25:19;36.80;59.90
24103;DHT22;12278;53.058;9.028;2022-08-19T14:29:22;35.20;59.70
24103;DHT22;12278;53.058;9.028;2022-08-19T14:33:23;35.70;58.50
24103;DHT22;12278;53.058;9.028;2022-08-19T14:37:23;36.60;57.00
24103;DHT22;12278;53.058;9.028;2022-08-19T14:41:24;37.20;53.20
24103;DHT22;12278;53.058;9.028;2022-08-19T14:45:27;37.40;50.00
24103;DHT22;12278;53.058;9.028;2022-08-19T14:49:28;37.40;52.80
24103;DHT22;12278;53.058;9.028;2022-08-19T14:53:29;37.30;48.80
24103;DHT22;12278;53.058;9.028;2022-08-19T14:57:30;37.70;52.40
24103;DHT22;12278;53.058;9.028;2022-08-19T15:01:30;37.40;51.00
24103;DHT22;12278;53.058;9.028;2022-08-19T15:05:32;37.60;50.60
24103;DHT22;12278;53.058;9.028;2022-08-19T15:09:33;37.70;51.60
24103;DHT22;12278;53.058;9.028;2022-08-19T15:13:35;37.70;51.20
24103;DHT22;12278;53.058;9.028;2022-08-19T15:17:36;38.10;50.60
24103;DHT22;12278;53.058;9.028;2022-08-19T15:21:37;37.40;52.00
24103;DHT22;12278;53.058;9.028;2022-08-19T15:25:38;37.60;49.90
24103;DHT22;12278;53.058;9.028;2022-08-19T15:29:39;37.90;50.40
24103;DHT22;12278;53.058;9.028;2022-08-19T15:33:40;37.70;50.80
24103;DHT22;12278;53.058;9.028;2022-08-19T15:37:42;37.60;50.40
24103;DHT22;12278;53.058;9.028;2022-08-19T15:41:43;37.10;50.80
24103;DHT22;12278;53.058;9.028;2022-08-19T15:45:45;37.60;51.00
24103;DHT22;12278;53.058;9.028;2022-08-19T15:49:47;37.30;50.40
24103;DHT22;12278;53.058;9.028;2022-08-19T15:53:48;36.60;53.50
24103;DHT22;12278;53.058;9.028;2022-08-19T15:57:50;37.10;51.50
24103;DHT22;12278;53.058;9.028;2022-08-19T16:02:10;37.30;51.90
24103;DHT22;12278;53.058;9.028;2022-08-19T16:06:30;37.00;54.20
24103;DHT22;12278;53.058;9.028;2022-08-19T16:10:31;37.00;52.80
24103;DHT22;12278;53.058;9.028;2022-08-19T16:14:32;36.50;52.60
24103;DHT22;12278;53.058;9.028;2022-08-19T16:18:35;35.80;54.10
24103;DHT22;12278;53.058;9.028;2022-08-19T16:22:38;35.40;53.10
24103;DHT22;12278;53.058;9.028;2022-08-19T16:26:40;34.80;56.50
24103;DHT22;12278;53.058;9.028;2022-08-19T16:30:42;33.50;57.40
24103;DHT22;12278;53.058;9.028;2022-08-19T16:34:43;32.90;58.30
24103;DHT22;12278;53.058;9.028;2022-08-19T16:38:43;32.20;59.00
24103;DHT22;12278;53.058;9.028;2022-08-19T16:42:48;31.70;61.50
24103;DHT22;12278;53.058;9.028;2022-08-19T16:46:49;31.50;59.80
24103;DHT22;12278;53.058;9.028;2022-08-19T16:50:50;31.20;60.90
24103;DHT22;12278;53.058;9.028;2022-08-19T16:54:52;30.50;64.30
24103;DHT22;12278;53.058;9.028;2022-08-19T16:58:54;29.50;67.00
24103;DHT22;12278;53.058;9.028;2022-08-19T17:02:55;28.30;72.00
24103;DHT22;12278;53.058;9.028;2022-08-19T17:06:56;27.20;71.00
24103;DHT22;12278;53.058;9.028;2022-08-19T17:10:57;26.60;73.90
24103;DHT22;12278;53.058;9.028;2022-08-19T17:15:02;26.30;79.90
24103;DHT22;12278;53.058;9.028;2022-08-19T17:19:05;26.00;84.50
24103;DHT22;12278;53.058;9.028;2022-08-19T17:23:08;25.80;84.50
24103;DHT22;12278;53.058;9.028;2022-08-19T17:27:09;25.60;85.60
24103;DHT22;12278;53.058;9.028;2022-08-19T17:31:10;25.50;86.70
24103;DHT22;12278;53.058;9.028;2022-08-19T17:35:11;25.30;88.20
24103;DHT22;12278;53.058;9.028;2022-08-19T17:39:11;25.10;87.70
24103;DHT22;12278;53.058;9.028;2022-08-19T17:43:13;24.90;89.20
24103;DHT22;12278;53.058;9.028;2022-08-19T17:47:15;24.70;90.50
24103;DHT22;12278;53.058;9.028;2022-08-19T17:51:17;24.60;91.00
24103;DHT22;12278;53.058;9.028;2022-08-19T17:55:19;24.60;90.90
24103;DHT22;12278;53.058;9.028;2022-08-19T17:59:19;24.40;91.60
24103;DHT22;12278;53.058;9.028;2022-08-19T18:03:20;24.30;93.00
24103;DHT22;12278;53.058;9.028;2022-08-19T18:07:23;24.10;93.30
24103;DHT22;12278;53.058;9.028;2022-08-19T18:11:23;23.90;95.30
24103;DHT22;12278;53.058;9.028;2022-08-19T18:15:24;23.80;95.50
24103;DHT22;12278;53.058;9.028;2022-08-19T18:19:25;23.60;96.00
24103;DHT22;12278;53.058;9.028;2022-08-19T18:23:26;23.50;96.90
24103;DHT22;12278;53.058;9.028;2022-08-19T18:27:27;23.40;98.00
24103;DHT22;12278;53.058;9.028;2022-08-19T18:31:28;23.20;98.80
24103;DHT22;12278;53.058;9.028;2022-08-19T18:35:30;23.10;99.50
24103;DHT22;12278;53.058;9.028;2022-08-19T18:39:31;23.00;99.90
24103;DHT22;12278;53.058;9.028;2022-08-19T18:43:50;22.80;99.90
24103;DHT22;12278;53.058;9.028;2022-08-19T18:48:10;22.60;99.90
24103;DHT22;12278;53.058;9.028;2022-08-19T18:52:29;22.50;99.90
24103;DHT22;12278;53.058;9.028;2022-08-19T18:56:32;22.40;99.90
24103;DHT22;12278;53.058;9.028;2022-08-19T19:00:34;22.30;99.90
24103;DHT22;12278;53.058;9.028;2022-08-19T19:04:36;22.30;99.90
24103;DHT22;12278;53.058;9.028;2022-08-19T19:08:38;22.20;99.90
24103;DHT22;12278;53.058;9.028;2022-08-19T19:16:50;22.00;99.90
24103;DHT22;12278;53.058;9.028;2022-08-19T19:20:51;22.00;99.90
24103;DHT22;12278;53.058;9.028;2022-08-19T19:24:52;22.00;99.90
24103;DHT22;12278;53.058;9.028;2022-08-19T19:28:55;21.90;99.90
24103;DHT22;12278;53.058;9.028;2022-08-19T19:32:56;21.90;99.90
24103;DHT22;12278;53.058;9.028;2022-08-19T19:36:59;21.80;99.90
24103;DHT22;12278;53.058;9.028;2022-08-19T19:41:00;21.70;99.90
24103;DHT22;12278;53.058;9.028;2022-08-19T19:45:02;21.60;99.90
24103;DHT22;12278;53.058;9.028;2022-08-19T19:49:03;21.50;99.90
24103;DHT22;12278;53.058;9.028;2022-08-19T19:53:05;21.50;99.90
24103;DHT22;12278;53.058;9.028;2022-08-19T19:57:05;21.40;99.90
24103;DHT22;12278;53.058;9.028;2022-08-19T20:01:06;21.50;99.90
24103;DHT22;12278;53.058;9.028;2022-08-19T20:05:11;21.50;99.90
24103;DHT22;12278;53.058;9.028;2022-08-19T20:09:13;21.40;99.90
24103;DHT22;12278;53.058;9.028;2022-08-19T20:13:16;21.30;99.90
24103;DHT22;12278;53.058;9.028;2022-08-19T20:17:18;21.30;99.90
24103;DHT22;12278;53.058;9.028;2022-08-19T20:21:19;21.20;99.90
24103;DHT22;12278;53.058;9.028;2022-08-19T20:25:20;21.00;99.90
24103;DHT22;12278;53.058;9.028;2022-08-19T20:29:21;21.10;99.90
24103;DHT22;12278;53.058;9.028;2022-08-19T20:33:22;21.10;99.90
24103;DHT22;12278;53.058;9.028;2022-08-19T20:37:23;21.00;99.90
24103;DHT22;12278;53.058;9.028;2022-08-19T20:41:24;20.80;99.90
24103;DHT22;12278;53.058;9.028;2022-08-19T20:45:25;20.70;99.90
24103;DHT22;12278;53.058;9.028;2022-08-19T20:49:26;20.80;99.90
24103;DHT22;12278;53.058;9.028;2022-08-19T20:53:26;20.80;99.90
24103;DHT22;12278;53.058;9.028;2022-08-19T20:57:27;20.70;99.90
24103;DHT22;12278;53.058;9.028;2022-08-19T21:01:29;20.70;99.90
24103;DHT22;12278;53.058;9.028;2022-08-19T21:05:31;20.60;99.90
24103;DHT22;12278;53.058;9.028;2022-08-19T21:09:32;20.50;99.90
24103;DHT22;12278;53.058;9.028;2022-08-19T21:13:33;20.60;99.90
24103;DHT22;12278;53.058;9.028;2022-08-19T21:17:34;20.50;99.90
24103;DHT22;12278;53.058;9.028;2022-08-19T21:21:34;20.60;99.90
24103;DHT22;12278;53.058;9.028;2022-08-19T21:25:35;20.60;99.90
24103;DHT22;12278;53.058;9.028;2022-08-19T21:29:36;20.50;99.90
24103;DHT22;12278;53.058;9.028;2022-08-19T21:33:39;20.40;99.90
24103;DHT22;12278;53.058;9.028;2022-08-19T21:37:40;20.40;99.90
24103;DHT22;12278;53.058;9.028;2022-08-19T21:41:41;20.30;99.90
24103;DHT22;12278;53.058;9.028;2022-08-19T21:45:41;20.40;99.90
24103;DHT22;12278;53.058;9.028;2022-08-19T21:49:42;20.40;99.90
24103;DHT22;12278;53.058;9.028;2022-08-19T21:53:43;20.50;99.90
24103;DHT22;12278;53.058;9.028;2022-08-19T21:57:43;20.60;99.90
24103;DHT22;12278;53.058;9.028;2022-08-19T22:01:44;20.60;99.90
24103;DHT22;12278;53.058;9.028;2022-08-19T22:05:45;20.50;99.90
24103;DHT22;12278;53.058;9.028;2022-08-19T22:09:46;20.50;99.90
24103;DHT22;12278;53.058;9.028;2022-08-19T22:13:48;20.30;99.90
24103;DHT22;12278;53.058;9.028;2022-08-19T22:17:54;20.20;99.90
24103;DHT22;12278;53.058;9.028;2022-08-19T22:21:59;20.30;99.90
24103;DHT22;12278;53.058;9.028;2022-08-19T22:26:00;20.20;99.90
24103;DHT22;12278;53.058;9.028;2022-08-19T22:30:01;20.10;99.90
24103;DHT22;12278;53.058;9.028;2022-08-19T22:34:06;20.20;99.90
24103;DHT22;12278;53.058;9.028;2022-08-19T22:38:07;20.20;99.90
24103;DHT22;12278;53.058;9.028;2022-08-19T22:42:09;20.20;99.90
24103;DHT22;12278;53.058;9.028;2022-08-19T22:46:10;20.30;99.90
24103;DHT22;12278;53.058;9.028;2022-08-19T22:50:11;20.30;99.90
24103;DHT22;12278;53.058;9.028;2022-08-19T22:54:11;20.40;99.90
24103;DHT22;12278;53.058;9.028;2022-08-19T22:58:12;20.20;99.90
24103;DHT22;12278;53.058;9.028;2022-08-19T23:02:19;20.20;99.90
24103;DHT22;12278;53.058;9.028;2022-08-19T23:06:22;20.20;99.90
24103;DHT22;12278;53.058;9.028;2022-08-19T23:10:23;20.10;99.90
24103;DHT22;12278;53.058;9.028;2022-08-19T23:14:25;19.90;99.90
24103;DHT22;12278;53.058;9.028;2022-08-19T23:18:25;19.80;99.90
24103;DHT22;12278;53.058;9.028;2022-08-19T23:22:26;19.70;99.90
24103;DHT22;12278;53.058;9.028;2022-08-19T23:26:29;19.70;99.90
24103;DHT22;12278;53.058;9.028;2022-08-19T23:30:31;19.60;99.90
24103;DHT22;12278;53.058;9.028;2022-08-19T23:34:33;19.50;99.90
24103;DHT22;12278;53.058;9.028;2022-08-19T23:38:33;19.50;99.90
24103;DHT22;12278;53.058;9.028;2022-08-19T23:42:38;19.60;99.90
24103;DHT22;12278;53.058;9.028;2022-08-19T23:46:40;19.50;99.90
24103;DHT22;12278;53.058;9.028;2022-08-19T23:50:43;19.40;99.90
24103;DHT22;12278;53.058;9.028;2022-08-19T23:54:44;19.20;99.90
24103;DHT22;12278;53.058;9.028;2022-08-19T23:58:45;19.30;99.90
